Time;durP1;ratioP1;P1;durP2;ratioP2;P2;SDS_P1;SDS_P2;PMS_P1;PMS_P2;Temp;Humidity;BMP_temperature;BMP_pressure;BME280_temperature;BME280_humidity;BME280_pressure;Samples;Min_cycle;Max_cycle;Signal;HPM_P1;HPM_P2
2022/01/29 00:00:11;;;;;;;0.77;0.40;;;;;;;-0.49;81.54;99691.41;4516472;31;20087;-70
2022/01/29 00:02:39;;;;;;;0.60;0.30;;;;;;;-0.49;81.70;99686.25;4516682;31;20091;-71
2022/01/29 00:05:08;;;;;;;0.95;0.40;;;;;;;-0.50;81.79;99687.13;4516473;31;20092;-71
2022/01/29 00:07:38;;;;;;;3.05;0.43;;;;;;;-0.55;82.41;99682.94;4516465;31;20122;-71
2022/01/29 00:10:05;;;;;;;2.45;0.52;;;;;;;-0.66;82.69;99685.00;4516586;31;20414;-71
2022/01/29 00:12:33;;;;;;;0.80;0.30;;;;;;;-0.59;81.01;99690.81;4516479;31;20091;-71
2022/01/29 00:15:00;;;;;;;1.52;0.70;;;;;;;-0.51;79.37;99708.62;4516302;31;20091;-71
2022/01/29 00:17:27;;;;;;;0.65;0.50;;;;;;;-0.54;79.61;99697.50;4516549;31;20377;-71
2022/01/29 00:19:55;;;;;;;0.98;0.45;;;;;;;-0.52;79.52;99696.63;4515411;31;20576;-71
2022/01/29 00:22:23;;;;;;;0.62;0.30;;;;;;;-0.54;79.71;99705.22;4516528;31;20139;-71
2022/01/29 00:24:50;;;;;;;3.33;0.70;;;;;;;-0.64;80.14;99708.94;4516522;31;20104;-71
2022/01/29 00:27:20;;;;;;;2.45;1.17;;;;;;;-0.65;80.34;99701.28;4516422;31;20114;-71
2022/01/29 00:29:47;;;;;;;2.00;1.20;;;;;;;-0.66;80.34;99700.44;4516185;31;20087;-71
2022/01/29 00:32:14;;;;;;;7.72;0.60;;;;;;;-0.69;81.01;99705.66;4516260;31;20096;-71
2022/01/29 00:34:42;;;;;;;1.85;0.50;;;;;;;-0.74;81.41;99700.66;4503168;31;20100;-71
2022/01/29 00:37:10;;;;;;;2.97;0.90;;;;;;;-0.75;81.90;99704.09;4500359;31;20124;-70
2022/01/29 00:39:37;;;;;;;0.57;0.40;;;;;;;-0.81;82.48;99699.13;4500324;31;20088;-71
2022/01/29 00:42:05;;;;;;;1.75;0.47;;;;;;;-0.86;83.05;99689.84;4500175;31;20134;-71
2022/01/29 00:44:43;;;;;;;3.12;1.00;;;;;;;-0.87;83.51;99695.91;4500492;31;20096;-71
2022/01/29 00:47:11;;;;;;;4.47;0.50;;;;;;;-0.83;83.46;99693.19;4500480;31;20358;-71
2022/01/29 00:49:38;;;;;;;8.07;0.40;;;;;;;-0.81;83.81;99695.72;4500111;31;20552;-70
2022/01/29 00:52:05;;;;;;;3.00;0.75;;;;;;;-0.84;84.88;99703.53;4500238;31;20080;-71
2022/01/29 00:54:33;;;;;;;4.05;1.30;;;;;;;-0.91;85.79;99700.25;4500326;31;20097;-70
2022/01/29 00:57:00;;;;;;;1.45;0.75;;;;;;;-0.85;86.88;99717.25;4500014;31;20159;-70
2022/01/29 00:59:28;;;;;;;3.05;1.12;;;;;;;-0.85;87.39;99719.84;4500121;31;20091;-71
2022/01/29 01:01:55;;;;;;;1.67;0.70;;;;;;;-0.92;88.10;99717.44;4500014;31;20117;-70
2022/01/29 01:04:22;;;;;;;4.18;0.57;;;;;;;-0.96;88.66;99712.41;4500042;31;20670;-71
2022/01/29 01:06:49;;;;;;;5.75;1.45;;;;;;;-0.94;88.65;99716.66;4499958;31;20100;-70
2022/01/29 01:09:17;;;;;;;5.57;1.27;;;;;;;-1.01;89.04;99715.12;4498342;31;20119;-70
2022/01/29 01:11:44;;;;;;;2.20;0.73;;;;;;;-1.03;89.00;99726.31;4499834;31;20080;-71
2022/01/29 01:14:11;;;;;;;4.25;0.93;;;;;;;-1.05;89.16;99728.09;4499814;31;20105;-71
2022/01/29 01:16:38;;;;;;;4.97;1.10;;;;;;;-1.04;89.03;99720.34;4499975;31;20100;-70
2022/01/29 01:19:06;;;;;;;2.28;0.60;;;;;;;-1.05;89.15;99734.06;4499912;31;20096;-71
2022/01/29 01:21:33;;;;;;;2.40;0.80;;;;;;;-1.05;88.88;99731.50;4499621;31;20091;-70
2022/01/29 01:24:00;;;;;;;4.20;1.77;;;;;;;-1.10;89.09;99744.47;4499723;31;20466;-70
2022/01/29 01:26:27;;;;;;;1.35;0.68;;;;;;;-1.09;89.26;99729.88;4499628;31;20084;-71
2022/01/29 01:28:54;;;;;;;2.65;0.35;;;;;;;-1.08;89.41;99741.87;4499440;31;20147;-70
2022/01/29 01:31:22;;;;;;;5.25;1.40;;;;;;;-1.08;89.59;99747.84;4501608;31;20076;-71
2022/01/29 01:33:50;;;;;;;2.40;0.85;;;;;;;-1.15;90.10;99732.63;4508927;31;20122;-70
2022/01/29 01:36:22;;;;;;;4.70;1.25;;;;;;;-1.14;90.12;99754.88;4517808;31;20095;-70
2022/01/29 01:38:54;;;;;;;3.15;1.20;;;;;;;-1.19;90.45;99736.16;4517786;31;20079;-70
2022/01/29 01:41:23;;;;;;;1.35;0.65;;;;;;;-1.21;90.57;99743.06;4517645;31;20131;-71
2022/01/29 01:43:51;;;;;;;3.15;1.17;;;;;;;-1.26;90.97;99740.59;4503965;31;20131;-70
2022/01/29 01:46:18;;;;;;;1.42;0.98;;;;;;;-1.26;90.94;99738.03;4517579;31;20151;-71
2022/01/29 01:48:45;;;;;;;1.77;1.10;;;;;;;-1.25;90.77;99730.28;4517662;31;20154;-71
2022/01/29 01:51:13;;;;;;;3.10;0.90;;;;;;;-1.28;90.51;99738.06;4517638;31;20119;-71
2022/01/29 01:53:40;;;;;;;1.30;0.90;;;;;;;-1.28;90.26;99717.50;4503151;31;20108;-71
2022/01/29 01:56:07;;;;;;;3.30;1.25;;;;;;;-1.29;90.31;99722.69;4517734;31;20118;-70
2022/01/29 01:58:34;;;;;;;4.47;0.98;;;;;;;-1.31;89.89;99720.16;4517334;31;20091;-70
2022/01/29 02:01:02;;;;;;;0.65;0.52;;;;;;;-1.27;88.53;99714.06;4517604;31;20131;-70
2022/01/29 02:03:29;;;;;;;4.95;0.98;;;;;;;-1.21;87.72;99696.78;4517375;31;20091;-70
2022/01/29 02:05:57;;;;;;;1.00;0.82;;;;;;;-1.17;87.39;99713.81;4517486;31;20100;-70
2022/01/29 02:08:24;;;;;;;1.27;0.77;;;;;;;-1.11;86.21;99685.38;4503092;31;20095;-70
2022/01/29 02:10:52;;;;;;;3.30;0.98;;;;;;;-1.17;86.09;99691.50;4517357;31;20083;-71
2022/01/29 02:13:19;;;;;;;2.95;0.88;;;;;;;-1.08;85.63;99705.88;4517397;31;20092;-71
2022/01/29 02:15:47;;;;;;;2.58;0.75;;;;;;;-1.04;84.62;99704.91;4517331;31;20440;-71
2022/01/29 02:18:15;;;;;;;2.95;0.93;;;;;;;-1.03;84.48;99698.03;4517371;31;20129;-71
2022/01/29 02:20:44;;;;;;;1.70;0.70;;;;;;;-1.08;85.03;99693.84;4517417;31;20091;-71
2022/01/29 02:23:11;;;;;;;1.02;0.62;;;;;;;-0.99;83.42;99702.22;4517587;31;20508;-71
2022/01/29 02:25:44;;;;;;;1.85;0.93;;;;;;;-1.01;84.17;99716.84;4517398;31;20107;-71
2022/01/29 02:28:19;;;;;;;0.90;0.60;;;;;;;-1.10;84.47;99720.50;4517499;31;20102;-71
2022/01/29 02:30:58;;;;;;;0.88;0.65;;;;;;;-1.11;84.73;99713.66;4517188;31;20090;-71
2022/01/29 02:33:26;;;;;;;5.07;1.10;;;;;;;-1.13;83.96;99707.72;4512675;31;20122;-71
2022/01/29 02:35:54;;;;;;;4.22;0.80;;;;;;;-1.10;83.36;99694.78;4501477;31;20096;-71
2022/01/29 02:38:23;;;;;;;3.72;1.12;;;;;;;-1.08;83.41;99713.56;4501257;31;20453;-71
2022/01/29 02:40:55;;;;;;;0.60;0.60;;;;;;;-1.03;82.57;99698.03;4501379;31;20091;-70
2022/01/29 02:43:47;;;;;;;2.30;0.80;;;;;;;-1.12;83.01;99696.53;4501151;31;20135;-71
2022/01/29 02:48:49;;;;;;;3.03;0.90;;;;;;;-0.98;81.55;99707.31;4501320;31;20476;-71
2022/01/29 02:51:17;;;;;;;1.77;0.60;;;;;;;-1.00;81.02;99714.25;4501351;31;20096;-70
2022/01/29 02:53:44;;;;;;;6.53;1.40;;;;;;;-1.15;82.71;99722.31;4501340;31;20136;-71
2022/01/29 02:56:12;;;;;;;1.87;1.35;;;;;;;-1.29;84.02;99720.13;4501331;31;20450;-71
2022/01/29 02:58:39;;;;;;;3.35;1.08;;;;;;;-1.32;84.33;99710.78;4501140;31;20404;-71
2022/01/29 03:01:07;;;;;;;1.27;0.70;;;;;;;-1.41;84.53;99710.97;4501226;31;20088;-71
2022/01/29 03:03:35;;;;;;;4.00;0.98;;;;;;;-1.44;84.32;99726.47;4501410;31;20104;-71
2022/01/29 03:06:07;;;;;;;2.12;0.70;;;;;;;-1.43;83.77;99725.59;4501298;31;20088;-71
2022/01/29 03:08:35;;;;;;;1.73;0.73;;;;;;;-1.45;83.44;99725.66;4501140;31;20147;-71
2022/01/29 03:11:03;;;;;;;3.20;1.15;;;;;;;-1.42;82.97;99732.44;4501112;31;20127;-71
2022/01/29 03:13:30;;;;;;;0.90;0.60;;;;;;;-1.44;83.30;99721.34;4501121;31;20089;-71
2022/01/29 03:15:57;;;;;;;2.58;0.88;;;;;;;-1.45;83.41;99719.66;4501186;31;20110;-71
2022/01/29 03:18:25;;;;;;;2.22;1.10;;;;;;;-1.43;82.92;99717.91;4501027;31;20172;-71
2022/01/29 03:20:52;;;;;;;1.52;0.90;;;;;;;-1.40;82.29;99734.97;4501212;31;20095;-71
2022/01/29 03:23:19;;;;;;;1.00;0.40;;;;;;;-1.38;81.24;99723.75;4501088;31;20111;-71
2022/01/29 03:25:46;;;;;;;1.15;0.50;;;;;;;-1.32;79.94;99733.91;4501183;31;20100;-71
2022/01/29 03:28:13;;;;;;;1.95;1.02;;;;;;;-1.30;79.23;99750.13;4500813;31;20118;-71
2022/01/29 03:30:41;;;;;;;1.85;0.50;;;;;;;-1.19;77.68;99764.44;4501149;31;20084;-71
2022/01/29 03:33:08;;;;;;;1.85;0.80;;;;;;;-1.15;77.27;99753.19;4503522;31;20127;-71
2022/01/29 03:35:35;;;;;;;2.65;1.45;;;;;;;-1.12;77.11;99753.97;4516961;31;20499;-70
2022/01/29 03:38:03;;;;;;;1.65;0.65;;;;;;;-1.15;77.20;99761.75;4516633;31;20114;-71
2022/01/29 03:40:32;;;;;;;1.27;0.65;;;;;;;-1.14;77.05;99766.00;4516938;31;20122;-71
2022/01/29 03:43:06;;;;;;;2.08;0.90;;;;;;;-1.15;76.79;99763.47;4516648;31;20096;-71
2022/01/29 03:45:34;;;;;;;2.95;0.52;;;;;;;-1.20;76.89;99766.16;4516834;31;20107;-71
2022/01/29 03:48:02;;;;;;;4.05;1.05;;;;;;;-1.28;76.92;99756.06;4516688;31;20092;-71
2022/01/29 03:50:29;;;;;;;2.40;0.65;;;;;;;-1.29;76.57;99748.41;4516924;31;20084;-71
2022/01/29 03:52:57;;;;;;;17.50;3.35;;;;;;;-1.17;75.39;99775.53;4516003;31;20480;-71
2022/01/29 03:55:24;;;;;;;0.88;0.50;;;;;;;-1.07;74.49;99749.53;4516521;31;20076;-71
2022/01/29 03:57:51;;;;;;;1.60;0.50;;;;;;;-0.90;73.27;99748.25;4516656;31;20095;-71
2022/01/29 04:00:18;;;;;;;3.00;0.73;;;;;;;-0.80;72.71;99767.72;4516690;31;20113;-71
2022/01/29 04:02:46;;;;;;;1.92;1.15;;;;;;;-0.85;73.44;99754.12;4516663;31;20111;-71
2022/01/29 04:05:13;;;;;;;1.20;0.80;;;;;;;-0.96;73.79;99759.53;4516835;31;20110;-71
2022/01/29 04:07:41;;;;;;;3.50;0.70;;;;;;;-0.89;73.24;99757.69;4516681;31;20114;-71
2022/01/29 04:10:09;;;;;;;1.08;0.50;;;;;;;-0.82;73.01;99763.50;4516343;31;20111;-71
2022/01/29 04:12:41;;;;;;;1.17;0.50;;;;;;;-0.86;73.26;99754.16;4502079;31;20104;-71
2022/01/29 04:15:09;;;;;;;1.58;0.50;;;;;;;-0.95;73.78;99756.09;4516550;31;20688;-71
2022/01/29 04:17:36;;;;;;;2.30;0.60;;;;;;;-0.92;73.72;99747.47;4516560;31;20084;-71
2022/01/29 04:20:04;;;;;;;1.55;0.37;;;;;;;-0.88;73.59;99761.91;4516438;31;20110;-71
2022/01/29 04:22:32;;;;;;;0.15;0.15;;;;;;;-0.87;73.71;99765.34;4516715;31;20119;-71
2022/01/29 04:24:59;;;;;;;5.15;0.93;;;;;;;-0.91;73.83;99756.84;4516479;31;20092;-71
2022/01/29 04:27:40;;;;;;;2.53;0.93;;;;;;;-0.85;73.73;99748.97;4516143;31;20118;-71
2022/01/29 04:30:13;;;;;;;2.90;0.50;;;;;;;-0.91;74.18;99746.56;4516362;31;20144;-71
2022/01/29 04:35:08;;;;;;;2.45;0.57;;;;;;;-0.98;74.78;99734.78;4500709;31;20156;-71
2022/01/29 04:37:35;;;;;;;1.55;0.55;;;;;;;-0.99;75.83;99738.22;4500508;31;20512;-71
2022/01/29 04:40:03;;;;;;;3.45;1.15;;;;;;;-1.00;76.93;99744.22;4500307;31;20076;-71
2022/01/29 04:42:30;;;;;;;1.40;0.70;;;;;;;-0.98;78.28;99748.47;4500424;31;20516;-71
2022/01/29 04:44:58;;;;;;;1.70;0.95;;;;;;;-1.03;79.36;99739.16;4500404;31;20404;-71
2022/01/29 04:47:25;;;;;;;5.50;1.25;;;;;;;-1.08;80.18;99740.13;4500354;31;20092;-71
2022/01/29 04:49:52;;;;;;;6.00;1.52;;;;;;;-1.15;80.79;99742.91;4500125;31;20122;-71
2022/01/29 04:52:19;;;;;;;3.37;1.48;;;;;;;-1.10;81.21;99746.22;4500381;31;20088;-71
2022/01/29 04:54:46;;;;;;;5.03;1.35;;;;;;;-1.03;81.53;99746.88;4500393;31;20119;-71
2022/01/29 04:57:14;;;;;;;5.90;1.80;;;;;;;-1.05;81.67;99752.06;4500311;31;20080;-71
2022/01/29 04:59:41;;;;;;;10.57;2.35;;;;;;;-1.07;81.95;99751.28;4500058;31;20548;-71
2022/01/29 05:02:08;;;;;;;4.85;2.25;;;;;;;-1.06;82.00;99747.81;4499927;31;20381;-71
2022/01/29 05:04:35;;;;;;;7.15;1.40;;;;;;;-0.98;82.19;99750.19;4500155;31;20088;-71
2022/01/29 05:07:03;;;;;;;7.25;2.00;;;;;;;-1.10;82.80;99752.19;4502126;31;20103;-71
2022/01/29 05:09:30;;;;;;;4.32;1.27;;;;;;;-0.92;82.32;99760.31;4501767;31;20084;-71
2022/01/29 05:12:00;;;;;;;3.97;1.45;;;;;;;-0.86;82.29;99760.16;4502199;31;20100;-71
2022/01/29 05:14:45;;;;;;;5.20;1.20;;;;;;;-0.87;82.35;99770.50;4502133;31;20578;-71
2022/01/29 05:26:50;;;;;;;8.25;2.35;;;;;;;-0.85;82.67;99768.72;4501995;31;20092;-71
2022/01/29 05:28:24;;;;;;;6.85;2.20;;;;;;;-1.00;83.56;99775.97;4501978;31;20578;-71
2022/01/29 05:30:51;;;;;;;10.60;1.75;;;;;;;-0.95;82.92;99778.41;4501606;31;20152;-71
2022/01/29 05:33:18;;;;;;;4.53;1.90;;;;;;;-0.95;82.48;99781.81;4505497;31;20095;-71
2022/01/29 05:35:45;;;;;;;3.85;1.45;;;;;;;-0.97;81.90;99788.75;4517639;31;20103;-71
2022/01/29 05:38:12;;;;;;;5.07;1.77;;;;;;;-0.86;81.35;99788.47;4517788;31;20083;-71
2022/01/29 05:40:40;;;;;;;10.38;1.87;;;;;;;-0.79;80.90;99790.00;4517537;31;20110;-71
2022/01/29 05:43:07;;;;;;;3.75;1.65;;;;;;;-0.72;80.47;99793.25;4517607;31;20125;-71
2022/01/29 05:45:34;;;;;;;8.98;1.62;;;;;;;-0.83;81.07;99790.09;4517743;31;20421;-71
2022/01/29 05:48:01;;;;;;;8.77;1.70;;;;;;;-0.86;81.22;99790.16;4517699;31;20618;-71
2022/01/29 05:50:29;;;;;;;2.90;1.30;;;;;;;-0.91;81.50;99785.16;4517605;31;20107;-71
2022/01/29 05:52:56;;;;;;;1.62;1.00;;;;;;;-0.94;82.12;99788.66;4517625;31;20457;-71
2022/01/29 05:55:23;;;;;;;7.82;2.45;;;;;;;-0.86;82.15;99787.59;4503276;31;20104;-71
2022/01/29 05:57:50;;;;;;;6.50;1.83;;;;;;;-0.87;82.37;99788.50;4517408;31;20118;-71
2022/01/29 06:00:17;;;;;;;7.35;2.20;;;;;;;-0.99;82.78;99790.50;4517473;31;20187;-71
2022/01/29 06:02:44;;;;;;;11.35;1.87;;;;;;;-1.02;83.07;99808.56;4517567;31;20100;-71
2022/01/29 06:05:12;;;;;;;4.45;1.35;;;;;;;-1.07;82.98;99807.84;4517605;31;20095;-71
2022/01/29 06:07:39;;;;;;;12.93;1.60;;;;;;;-0.99;82.77;99821.34;4517685;31;20113;-71
2022/01/29 06:10:06;;;;;;;8.82;2.15;;;;;;;-0.97;82.78;99823.88;4517348;31;20125;-71
2022/01/29 06:12:37;;;;;;;5.95;2.12;;;;;;;-0.95;82.80;99825.53;4517501;31;20122;-71
2022/01/29 06:15:04;;;;;;;10.80;2.47;;;;;;;-0.98;82.91;99825.63;4502979;31;20810;-71
2022/01/29 06:17:31;;;;;;;7.50;1.95;;;;;;;-0.98;83.26;99829.94;4516829;31;20138;-71
2022/01/29 06:19:59;;;;;;;7.78;2.90;;;;;;;-0.95;83.18;99830.69;4517486;31;20450;-71
2022/01/29 06:22:27;;;;;;;5.72;2.20;;;;;;;-0.98;83.33;99812.75;4517547;31;20096;-71
2022/01/29 06:24:54;;;;;;;3.80;1.55;;;;;;;-1.02;83.75;99824.00;4503098;31;20160;-71
2022/01/29 06:27:21;;;;;;;18.90;2.12;;;;;;;-1.03;83.64;99822.34;4502946;31;20547;-71
2022/01/29 06:29:48;;;;;;;2.70;1.33;;;;;;;-1.05;83.89;99813.78;4517416;31;20087;-71
2022/01/29 06:32:17;;;;;;;7.45;1.90;;;;;;;-0.94;83.73;99819.53;4517099;31;20095;-71
2022/01/29 06:34:44;;;;;;;2.47;1.65;;;;;;;-0.99;84.16;99815.38;4504032;31;20149;-71
2022/01/29 06:37:11;;;;;;;7.37;2.05;;;;;;;-1.04;84.54;99810.34;4501376;31;20083;-71
2022/01/29 06:39:38;;;;;;;7.55;2.33;;;;;;;-0.95;84.00;99812.69;4500199;31;20080;-71
2022/01/29 06:42:06;;;;;;;5.95;2.08;;;;;;;-0.97;84.08;99809.31;4501507;31;20135;-71
2022/01/29 06:44:33;;;;;;;5.05;1.67;;;;;;;-0.86;83.71;99805.59;4501611;31;20148;-71
2022/01/29 06:47:02;;;;;;;3.08;1.50;;;;;;;-0.91;83.71;99822.03;4501394;31;20159;-71
2022/01/29 06:49:30;;;;;;;7.43;1.80;;;;;;;-0.80;83.35;99808.00;4501806;31;20100;-71
2022/01/29 06:51:57;;;;;;;7.35;2.15;;;;;;;-0.64;82.97;99811.88;4501372;31;20089;-71
2022/01/29 06:54:24;;;;;;;9.05;2.10;;;;;;;-0.59;82.47;99814.31;4500022;31;20126;-71
2022/01/29 06:56:51;;;;;;;14.73;2.22;;;;;;;-0.45;81.96;99816.56;4501143;31;20084;-71
2022/01/29 06:59:18;;;;;;;10.43;1.98;;;;;;;-0.44;81.20;99824.22;4501223;31;20449;-71
2022/01/29 07:01:45;;;;;;;7.87;1.87;;;;;;;-0.48;81.32;99830.34;4501152;31;20127;-71
2022/01/29 07:04:13;;;;;;;3.85;1.50;;;;;;;-0.58;81.73;99837.44;4501136;31;20175;-71
2022/01/29 07:06:40;;;;;;;6.50;2.55;;;;;;;-0.48;81.53;99837.22;4501333;31;20096;-71
2022/01/29 07:09:08;;;;;;;10.82;2.45;;;;;;;-0.38;80.73;99843.78;4501283;31;20088;-71
2022/01/29 07:11:35;;;;;;;5.68;1.70;;;;;;;-0.22;79.99;99842.50;4501070;31;20213;-71
2022/01/29 07:14:03;;;;;;;6.10;1.90;;;;;;;-0.13;79.18;99832.84;4501220;31;20096;-71
2022/01/29 07:16:32;;;;;;;6.40;2.17;;;;;;;-0.02;79.07;99839.34;4501187;31;20106;-71
2022/01/29 07:19:00;;;;;;;5.85;2.05;;;;;;;-0.08;79.35;99830.97;4501163;31;20859;-71
2022/01/29 07:21:27;;;;;;;5.37;2.00;;;;;;;0.08;78.94;99827.06;4501212;31;20123;-71
2022/01/29 07:23:54;;;;;;;13.32;2.42;;;;;;;0.10;78.74;99837.31;4501086;31;20118;-71
2022/01/29 07:26:21;;;;;;;9.88;2.22;;;;;;;0.00;79.21;99847.06;4501079;31;20484;-71
2022/01/29 07:28:48;;;;;;;8.55;2.30;;;;;;;0.03;79.15;99836.69;4500856;31;20087;-71
2022/01/29 07:31:20;;;;;;;17.50;2.70;;;;;;;0.06;79.28;99839.16;4501034;31;20080;-71
2022/01/29 07:33:48;;;;;;;9.15;2.70;;;;;;;0.11;78.69;99841.59;4499467;31;20616;-71
2022/01/29 07:36:15;;;;;;;8.32;2.03;;;;;;;0.07;78.78;99843.41;4500933;31;20548;-71
2022/01/29 07:38:42;;;;;;;7.45;1.98;;;;;;;0.15;78.81;99843.19;4500933;31;20091;-71
2022/01/29 07:41:09;;;;;;;6.85;1.95;;;;;;;0.27;78.39;99844.56;4500973;31;20120;-71
2022/01/29 07:43:37;;;;;;;9.45;2.53;;;;;;;0.39;78.00;99841.59;4501116;31;20476;-71
2022/01/29 07:46:04;;;;;;;6.68;2.20;;;;;;;0.55;77.57;99846.31;4501154;31;20110;-71
2022/01/29 07:48:31;;;;;;;4.72;1.73;;;;;;;0.66;77.07;99849.41;4500884;31;20091;-71
2022/01/29 07:50:58;;;;;;;7.90;3.00;;;;;;;0.62;76.50;99843.50;4500888;31;20124;-71
2022/01/29 07:53:25;;;;;;;8.65;1.90;;;;;;;0.69;74.89;99841.56;4499725;31;20104;-71
2022/01/29 07:55:53;;;;;;;7.28;1.70;;;;;;;0.82;74.88;99840.28;4500877;31;20091;-71
2022/01/29 07:58:20;;;;;;;12.13;2.45;;;;;;;0.86;73.47;99836.72;4500908;31;20182;-71
2022/01/29 08:00:48;;;;;;;4.65;1.40;;;;;;;0.86;72.04;99843.59;4499662;31;20493;-71
2022/01/29 08:03:15;;;;;;;5.72;1.50;;;;;;;0.76;72.15;99853.38;4500559;31;20491;-71
2022/01/29 08:05:43;;;;;;;7.85;1.80;;;;;;;0.81;71.81;99848.91;4500941;31;20106;-71
2022/01/29 08:08:19;;;;;;;8.20;1.65;;;;;;;0.87;71.57;99840.13;4500721;31;20091;-71
2022/01/29 08:10:46;;;;;;;11.00;2.28;;;;;;;0.92;70.31;99845.97;4500454;31;20167;-71
2022/01/29 08:13:13;;;;;;;3.58;1.60;;;;;;;1.04;69.76;99845.56;4500516;31;20104;-71
2022/01/29 08:15:41;;;;;;;5.78;1.75;;;;;;;1.03;69.77;99838.75;4500470;31;20096;-71
2022/01/29 08:18:08;;;;;;;6.93;1.92;;;;;;;1.04;69.83;99850.75;4500619;31;20110;-71
2022/01/29 08:20:35;;;;;;;6.50;1.62;;;;;;;1.03;69.29;99841.34;4500752;31;20473;-71
2022/01/29 08:23:07;;;;;;;5.82;1.85;;;;;;;1.09;67.44;99840.28;4500526;31;20167;-71
2022/01/29 08:25:35;;;;;;;7.85;1.73;;;;;;;0.99;68.18;99850.06;4500620;31;20192;-71
2022/01/29 08:28:02;;;;;;;5.95;1.67;;;;;;;0.95;68.54;99845.88;4500411;31;20092;-71
2022/01/29 08:30:31;;;;;;;8.82;1.67;;;;;;;1.21;68.41;99849.34;4500321;31;20837;-71
2022/01/29 08:32:59;;;;;;;5.75;1.92;;;;;;;1.31;67.72;99857.63;4501813;31;20126;-71
2022/01/29 08:35:27;;;;;;;5.35;1.52;;;;;;;1.38;67.08;99861.72;4516218;31;20506;-71
2022/01/29 08:37:57;;;;;;;5.00;1.52;;;;;;;1.45;66.91;99854.59;4516189;31;20080;-71
2022/01/29 08:40:24;;;;;;;3.60;1.83;;;;;;;1.34;65.22;99867.88;4501114;31;20119;-71
2022/01/29 08:42:52;;;;;;;10.40;1.55;;;;;;;1.23;66.24;99861.31;4516112;31;20118;-71
2022/01/29 08:45:20;;;;;;;7.35;1.37;;;;;;;1.28;65.46;99863.75;4516247;31;20826;-71
2022/01/29 08:47:47;;;;;;;4.75;1.33;;;;;;;1.31;64.61;99863.63;4516081;31;20558;-71
2022/01/29 08:50:15;;;;;;;4.25;1.37;;;;;;;1.42;64.39;99850.34;4516116;31;20677;-71
2022/01/29 08:52:42;;;;;;;10.13;1.90;;;;;;;1.57;63.87;99857.56;4516018;31;20159;-71
2022/01/29 08:55:10;;;;;;;4.28;1.42;;;;;;;1.81;63.40;99864.53;4516065;31;20095;-71
2022/01/29 08:57:38;;;;;;;2.75;1.17;;;;;;;1.83;61.80;99871.31;4515684;31;20541;-71
2022/01/29 09:00:06;;;;;;;4.80;1.60;;;;;;;1.87;61.98;99862.56;4516009;31;20398;-71
2022/01/29 09:02:34;;;;;;;7.22;1.52;;;;;;;1.81;60.17;99867.94;4515843;31;20701;-71
2022/01/29 09:05:02;;;;;;;7.75;2.08;;;;;;;1.82;59.52;99867.06;4515788;31;20118;-71
2022/01/29 09:07:29;;;;;;;3.50;1.23;;;;;;;2.02;60.67;99865.50;4501209;31;20491;-71
2022/01/29 09:09:56;;;;;;;5.97;1.70;;;;;;;2.27;60.03;99871.47;4515599;31;20122;-71
2022/01/29 09:12:23;;;;;;;2.47;1.08;;;;;;;2.29;59.77;99868.81;4515784;31;20123;-71
2022/01/29 09:14:51;;;;;;;4.57;1.00;;;;;;;2.51;57.80;99863.66;4515704;31;20087;-71
2022/01/29 09:17:18;;;;;;;4.57;1.23;;;;;;;2.57;59.30;99871.19;4515780;31;20510;-71
2022/01/29 09:19:45;;;;;;;5.15;1.62;;;;;;;2.66;59.65;99872.56;4515671;31;20579;-71
2022/01/29 09:22:13;;;;;;;6.72;1.15;;;;;;;2.79;59.56;99872.94;4515675;31;20088;-71
2022/01/29 09:24:40;;;;;;;4.37;0.95;;;;;;;2.71;60.21;99869.81;4515370;31;20091;-71
2022/01/29 09:27:08;;;;;;;5.62;1.10;;;;;;;2.57;60.50;99871.19;4515573;31;20083;-71
2022/01/29 09:29:35;;;;;;;9.60;2.12;;;;;;;2.64;60.88;99869.22;4515443;31;20135;-71
2022/01/29 09:32:03;;;;;;;4.60;1.70;;;;;;;2.73;60.72;99868.03;4515388;31;20122;-71
2022/01/29 09:34:30;;;;;;;5.60;1.30;;;;;;;2.94;61.12;99849.03;4515098;31;20103;-71
2022/01/29 09:36:57;;;;;;;2.17;1.10;;;;;;;2.91;61.36;99856.09;4515439;31;20203;-71
2022/01/29 09:39:24;;;;;;;5.15;1.30;;;;;;;2.80;60.90;99857.38;4515347;31;20115;-71
2022/01/29 09:41:53;;;;;;;6.50;2.40;;;;;;;2.75;62.31;99864.44;4515369;31;20122;-71
2022/01/29 09:44:21;;;;;;;6.30;1.77;;;;;;;2.80;62.25;99859.94;4515168;31;20095;-71
2022/01/29 09:46:51;;;;;;;7.50;2.22;;;;;;;2.87;63.92;99870.87;4515319;31;20581;-71
2022/01/29 09:49:18;;;;;;;10.10;2.40;;;;;;;2.70;63.21;99858.63;4515146;31;20469;-71
2022/01/29 09:51:46;;;;;;;5.75;1.90;;;;;;;2.73;65.07;99848.16;4515651;31;20095;-71
2022/01/29 09:54:13;;;;;;;9.23;2.33;;;;;;;2.82;65.35;99837.44;4517477;31;20087;-71
2022/01/29 09:56:40;;;;;;;12.85;2.42;;;;;;;2.97;64.54;99845.50;4517708;31;20413;-71
2022/01/29 09:59:07;;;;;;;13.80;3.78;;;;;;;3.11;65.14;99830.22;4517447;31;20104;-71
2022/01/29 10:01:34;;;;;;;13.50;2.78;;;;;;;3.20;64.59;99823.81;4517000;31;20087;-71
2022/01/29 10:04:05;;;;;;;6.78;2.53;;;;;;;3.13;64.58;99825.81;4516826;31;20113;-71
2022/01/29 10:06:34;;;;;;;6.30;1.92;;;;;;;3.08;65.33;99820.00;4517326;31;20083;-71
2022/01/29 10:09:06;;;;;;;6.10;2.10;;;;;;;2.95;65.31;99818.81;4517257;31;20095;-71
2022/01/29 10:11:34;;;;;;;6.10;2.33;;;;;;;2.94;65.70;99814.56;4503286;31;20096;-71
2022/01/29 10:14:03;;;;;;;14.40;2.53;;;;;;;3.13;65.45;99797.34;4515326;31;20099;-71
2022/01/29 10:16:33;;;;;;;8.20;2.62;;;;;;;3.00;65.40;99802.19;4517591;31;20373;-71
2022/01/29 10:19:03;;;;;;;4.72;1.83;;;;;;;3.07;65.71;99804.53;4517795;31;20104;-71
2022/01/29 10:21:33;;;;;;;10.45;2.08;;;;;;;2.95;64.86;99809.31;4517443;31;20112;-71
2022/01/29 10:24:04;;;;;;;6.47;2.47;;;;;;;2.80;65.66;99815.97;4517473;31;20147;-71
2022/01/29 10:26:45;;;;;;;9.73;2.42;;;;;;;2.82;65.58;99818.47;4517303;31;20167;-71
2022/01/29 10:29:15;;;;;;;8.48;2.55;;;;;;;2.64;67.08;99818.31;4517299;31;20148;-71
2022/01/29 10:31:46;;;;;;;9.35;2.17;;;;;;;2.82;67.07;99805.53;4517227;31;20110;-71
2022/01/29 10:34:34;;;;;;;7.85;2.35;;;;;;;2.82;67.26;99815.91;4507405;31;20133;-71
2022/01/29 10:37:20;;;;;;;10.85;3.17;;;;;;;3.00;67.55;99803.94;4501520;31;20088;-71
2022/01/29 10:39:53;;;;;;;13.10;3.05;;;;;;;3.14;67.04;99805.97;4501157;31;20624;-71
2022/01/29 10:42:26;;;;;;;15.95;3.15;;;;;;;2.91;67.85;99797.41;4501499;31;20786;-71
2022/01/29 10:45:03;;;;;;;8.75;2.00;;;;;;;2.81;68.51;99793.50;4501239;31;20080;-71
2022/01/29 10:47:30;;;;;;;12.23;3.20;;;;;;;2.92;68.43;99796.50;4500161;31;20433;-71
2022/01/29 10:50:02;;;;;;;13.35;3.08;;;;;;;2.97;68.98;99783.38;4501282;31;20193;-71
2022/01/29 10:52:32;;;;;;;14.63;2.90;;;;;;;2.97;68.81;99784.22;4501391;31;20106;-71
2022/01/29 10:55:03;;;;;;;8.85;2.40;;;;;;;3.10;68.88;99781.09;4501196;31;20096;-71
2022/01/29 10:57:42;;;;;;;9.93;2.83;;;;;;;3.12;68.37;99771.50;4501099;31;20092;-71
2022/01/29 11:00:21;;;;;;;12.25;2.85;;;;;;;2.97;69.03;99784.22;4501360;31;20135;-71
2022/01/29 11:02:49;;;;;;;15.10;3.78;;;;;;;3.00;68.94;99773.72;4500924;31;20079;-71
2022/01/29 11:05:17;;;;;;;13.55;2.72;;;;;;;3.07;69.13;99769.12;4500903;31;20555;-71
2022/01/29 11:07:51;;;;;;;15.15;3.00;;;;;;;3.09;69.30;99766.47;4501279;31;20092;-71
2022/01/29 11:10:19;;;;;;;14.13;3.22;;;;;;;3.11;68.97;99760.31;4501070;31;20153;-71
2022/01/29 11:12:48;;;;;;;9.63;3.12;;;;;;;3.12;69.58;99759.44;4501124;31;20137;-71
2022/01/29 11:15:17;;;;;;;14.05;3.62;;;;;;;3.05;69.81;99759.75;4500907;31;20520;-71
2022/01/29 11:17:46;;;;;;;17.12;3.65;;;;;;;3.06;69.90;99754.50;4501478;31;20167;-71
2022/01/29 11:20:13;;;;;;;12.80;3.30;;;;;;;3.04;70.14;99758.06;4501446;31;20095;-71
2022/01/29 11:22:43;;;;;;;11.63;3.70;;;;;;;3.18;69.82;99747.97;4501360;31;20115;-71
2022/01/29 11:25:17;;;;;;;9.30;2.83;;;;;;;3.33;69.40;99749.03;4499762;31;20179;-71
2022/01/29 11:27:45;;;;;;;11.82;2.80;;;;;;;3.41;68.74;99738.34;4499982;31;20143;-71
2022/01/29 11:30:14;;;;;;;16.45;2.75;;;;;;;3.36;68.93;99734.22;4500627;31;20188;-71
2022/01/29 11:32:44;;;;;;;13.35;2.55;;;;;;;3.28;69.38;99732.88;4501354;31;20117;-71
2022/01/29 11:35:15;;;;;;;9.65;2.08;;;;;;;3.34;68.59;99728.25;4500815;31;20100;-71
2022/01/29 11:37:45;;;;;;;12.80;2.42;;;;;;;3.38;68.03;99718.59;4500884;31;20115;-71
2022/01/29 11:40:13;;;;;;;4.50;2.12;;;;;;;3.37;68.08;99719.50;4500889;31;20091;-71
2022/01/29 11:43:14;;;;;;;10.85;3.42;;;;;;;3.43;67.89;99714.06;4500996;31;20119;-71
2022/01/29 11:46:16;;;;;;;10.40;1.98;;;;;;;3.35;68.06;99711.81;4500835;31;20076;-71
2022/01/29 11:48:53;;;;;;;17.48;3.00;;;;;;;3.37;68.33;99709.97;4420433;32;20447;-71
2022/01/29 11:51:42;;;;;;;8.57;2.42;;;;;;;3.46;68.14;99697.53;4420597;32;20114;-71
2022/01/29 11:54:16;;;;;;;10.60;2.83;;;;;;;3.55;67.72;99697.13;4420674;32;20613;-71